createdAt,value
2022-09-15T00:00:05.578Z,3.47
2022-09-15T00:02:32.857Z,3.42
2022-09-15T00:05:00.769Z,3.20
2022-09-15T00:07:27.907Z,3.78
2022-09-15T00:09:55.015Z,4.20
2022-09-15T00:12:22.153Z,4.18
2022-09-15T00:14:49.343Z,4.65
2022-09-15T00:17:16.498Z,4.18
2022-09-15T00:19:43.644Z,3.90
2022-09-15T00:22:10.734Z,3.85
2022-09-15T00:24:37.843Z,4.13
2022-09-15T00:27:05.280Z,4.63
2022-09-15T00:29:32.379Z,4.13
2022-09-15T00:31:59.481Z,4.38
2022-09-15T00:34:26.569Z,4.05
2022-09-15T00:36:53.675Z,4.30
2022-09-15T00:39:20.876Z,4.10
2022-09-15T00:41:47.989Z,4.45
2022-09-15T00:44:17.869Z,3.92
2022-09-15T00:47:03.956Z,4.18
2022-09-15T00:49:35.531Z,3.97
2022-09-15T00:52:21.048Z,4.45
2022-09-15T00:54:48.094Z,4.07
2022-09-15T00:57:23.795Z,4.35
2022-09-15T00:59:51.275Z,4.22
2022-09-15T01:02:18.391Z,5.32
2022-09-15T01:04:45.769Z,3.95
2022-09-15T01:07:15.327Z,3.65
2022-09-15T01:09:48.022Z,4.32
2022-09-15T01:14:42.196Z,3.35
2022-09-15T01:17:12.312Z,3.35
2022-09-15T01:19:55.090Z,3.40
2022-09-15T01:22:42.014Z,3.67
2022-09-15T01:25:17.961Z,2.95
2022-09-15T01:28:03.799Z,3.45
2022-09-15T01:30:35.206Z,3.78
2022-09-15T01:33:08.508Z,2.85
2022-09-15T01:35:41.375Z,3.65
2022-09-15T01:38:34.807Z,3.55
2022-09-15T01:41:20.773Z,3.28
2022-09-15T01:43:56.731Z,3.10
2022-09-15T01:46:25.211Z,2.95
2022-09-15T01:48:54.599Z,3.22
2022-09-15T01:51:22.558Z,2.88
2022-09-15T01:53:51.313Z,3.60
2022-09-15T01:56:18.520Z,3.10
2022-09-15T01:58:45.644Z,3.30
2022-09-15T02:01:31.603Z,3.17
2022-09-15T02:04:01.357Z,3.53
2022-09-15T02:06:36.232Z,3.20
2022-09-15T02:09:07.340Z,3.10
2022-09-15T02:11:35.293Z,2.88
2022-09-15T02:14:03.473Z,2.67
2022-09-15T02:16:33.197Z,2.92
2022-09-15T02:19:09.649Z,2.80
2022-09-15T02:21:47.917Z,3.53
2022-09-15T02:24:19.036Z,2.85
2022-09-15T02:26:47.751Z,3.55
2022-09-15T02:29:16.658Z,3.67
2022-09-15T02:31:45.307Z,3.30
2022-09-15T02:34:26.328Z,3.63
2022-09-15T02:36:53.932Z,4.03
2022-09-15T02:39:23.588Z,3.38
2022-09-15T02:41:50.991Z,3.65
2022-09-15T02:44:18.141Z,3.80
2022-09-15T02:46:45.254Z,4.05
2022-09-15T02:49:14.152Z,3.72
2022-09-15T02:51:41.348Z,4.18
2022-09-15T02:54:08.595Z,4.60
2022-09-15T02:56:35.680Z,3.95
2022-09-15T02:59:02.772Z,4.30
2022-09-15T03:01:34.635Z,4.78
2022-09-15T03:04:02.927Z,4.68
2022-09-15T03:06:34.540Z,4.15
2022-09-15T03:09:02.915Z,4.50
2022-09-15T03:11:30.704Z,4.25
2022-09-15T03:14:01.787Z,4.50
2022-09-15T03:16:29.910Z,5.47
2022-09-15T03:18:59.373Z,5.10
2022-09-15T03:21:27.284Z,5.78
2022-09-15T03:23:54.420Z,6.25
2022-09-15T03:26:21.541Z,5.57
2022-09-15T03:28:48.619Z,5.63
2022-09-15T03:31:15.787Z,5.55
2022-09-15T03:33:42.942Z,5.60
2022-09-15T03:36:10.164Z,4.90
2022-09-15T03:38:37.334Z,5.68
2022-09-15T03:41:08.732Z,5.93
2022-09-15T03:43:36.490Z,6.53
2022-09-15T03:46:04.862Z,6.55
2022-09-15T03:48:33.234Z,6.65
2022-09-15T03:51:00.288Z,6.78
2022-09-15T03:53:27.503Z,7.05
2022-09-15T03:55:54.639Z,6.68
2022-09-15T03:58:21.869Z,6.72
2022-09-15T04:00:49.034Z,6.75
2022-09-15T04:03:16.196Z,7.55
2022-09-15T04:05:43.372Z,7.13
2022-09-15T04:08:12.127Z,6.80
2022-09-15T04:10:39.723Z,7.07
2022-09-15T04:13:06.863Z,7.95
2022-09-15T04:15:34.265Z,7.63
2022-09-15T04:18:01.421Z,7.68
2022-09-15T04:20:28.520Z,7.53
2022-09-15T04:22:55.677Z,7.70
2022-09-15T04:25:22.836Z,6.97
2022-09-15T04:27:49.935Z,6.93
2022-09-15T04:30:17.099Z,7.25
2022-09-15T04:32:44.186Z,3.63
2022-09-15T04:35:11.623Z,1.83
2022-09-15T04:37:39.021Z,1.55
2022-09-15T04:40:06.521Z,1.60
2022-09-15T04:42:33.694Z,1.70
2022-09-15T04:48:25.407Z,1.10
2022-09-15T04:50:52.546Z,1.20
2022-09-15T04:53:19.646Z,1.10
2022-09-15T04:55:46.709Z,1.15
2022-09-15T04:58:14.290Z,1.52
2022-09-15T05:00:45.848Z,1.20
2022-09-15T05:03:14.106Z,1.60
2022-09-15T05:05:41.696Z,1.90
2022-09-15T05:08:08.856Z,2.47
2022-09-15T05:10:38.097Z,2.90
2022-09-15T05:13:05.231Z,3.15
2022-09-15T05:15:32.311Z,4.40
2022-09-15T05:17:59.515Z,4.07
2022-09-15T05:20:26.685Z,4.85
2022-09-15T05:22:53.814Z,4.60
2022-09-15T05:25:20.970Z,5.13
2022-09-15T05:27:48.132Z,6.20
2022-09-15T05:30:36.305Z,7.15
2022-09-15T05:33:02.365Z,7.82
2022-09-15T05:35:29.463Z,8.55
2022-09-15T05:37:56.650Z,10.00
2022-09-15T05:40:23.842Z,10.43
2022-09-15T05:42:50.956Z,11.50
2022-09-15T05:45:18.137Z,11.60
2022-09-15T05:47:45.208Z,14.35
2022-09-15T05:50:12.423Z,16.15
2022-09-15T05:52:40.103Z,16.48
2022-09-15T05:55:07.315Z,18.30
2022-09-15T05:57:34.421Z,19.52
2022-09-15T06:00:01.526Z,20.65
2022-09-15T06:02:28.746Z,20.67
2022-09-15T06:04:55.887Z,21.75
2022-09-15T06:07:23.054Z,25.50
2022-09-15T06:09:50.179Z,25.05
2022-09-15T06:12:18.328Z,27.70
2022-09-15T06:14:47.147Z,28.90
2022-09-15T06:17:14.189Z,30.10
2022-09-15T06:19:41.261Z,30.65
2022-09-15T06:22:08.352Z,32.78
2022-09-15T06:24:35.493Z,32.40
2022-09-15T06:27:02.693Z,29.40
2022-09-15T06:29:31.648Z,32.13
2022-09-15T06:32:02.732Z,29.17
2022-09-15T06:34:30.059Z,30.80
2022-09-15T06:36:57.158Z,30.83
2022-09-15T06:39:24.591Z,30.45
2022-09-15T06:42:02.680Z,28.85
2022-09-15T06:44:30.938Z,31.70
2022-09-15T06:46:58.232Z,26.88
2022-09-15T06:49:25.945Z,25.15
2022-09-15T06:51:53.229Z,23.02
2022-09-15T06:54:20.414Z,20.88
2022-09-15T06:56:47.449Z,20.02
2022-09-15T06:59:15.303Z,20.38
2022-09-15T07:01:43.003Z,18.88
2022-09-15T07:04:10.354Z,21.35
2022-09-15T07:06:39.570Z,20.63
2022-09-15T07:09:07.013Z,22.27
2022-09-15T07:11:34.371Z,22.58
2022-09-15T07:14:01.668Z,23.50
2022-09-15T07:16:28.803Z,23.80
2022-09-15T07:19:01.929Z,23.05
2022-09-15T07:21:29.076Z,23.50
2022-09-15T07:24:02.711Z,23.50
2022-09-15T07:26:33.753Z,26.08
2022-09-15T07:29:01.925Z,23.92
2022-09-15T07:31:31.069Z,24.70
2022-09-15T07:33:59.418Z,24.27
2022-09-15T07:36:26.506Z,22.13
2022-09-15T07:38:53.689Z,21.80
2022-09-15T07:41:22.122Z,18.00
2022-09-15T07:43:50.110Z,16.77
2022-09-15T07:46:18.197Z,17.23
2022-09-15T07:48:49.253Z,17.33
2022-09-15T07:51:17.019Z,18.35
2022-09-15T07:53:45.002Z,17.45
2022-09-15T07:56:12.341Z,17.05
2022-09-15T07:58:39.528Z,18.83
2022-09-15T08:01:08.282Z,16.15
2022-09-15T08:03:35.460Z,15.25
2022-09-15T08:06:03.291Z,18.77
2022-09-15T08:08:30.530Z,16.30
2022-09-15T08:10:58.449Z,17.75
2022-09-15T08:13:25.731Z,15.60
2022-09-15T08:15:52.899Z,15.60
2022-09-15T08:18:20.014Z,15.35
2022-09-15T08:20:47.187Z,15.68
2022-09-15T08:23:14.301Z,15.07
2022-09-15T08:25:41.406Z,14.85
2022-09-15T08:28:08.532Z,16.33
2022-09-15T08:30:35.703Z,14.82
2022-09-15T08:33:02.784Z,13.07
2022-09-15T08:35:32.449Z,13.57
2022-09-15T08:37:59.520Z,14.15
2022-09-15T08:40:38.007Z,13.60
2022-09-15T08:43:12.385Z,13.15
2022-09-15T08:45:50.155Z,12.32
2022-09-15T08:48:18.140Z,12.82
2022-09-15T08:50:52.196Z,12.10
2022-09-15T08:53:19.832Z,10.50
2022-09-15T08:55:50.188Z,10.52
2022-09-15T08:58:18.762Z,10.82
2022-09-15T09:00:47.463Z,9.95
2022-09-15T09:03:33.385Z,10.80
2022-09-15T09:06:15.776Z,9.68
2022-09-15T09:08:52.133Z,9.02
2022-09-15T09:11:28.495Z,8.82
2022-09-15T09:13:59.023Z,8.35
2022-09-15T09:16:26.537Z,7.82
2022-09-15T09:18:56.846Z,7.32
2022-09-15T09:21:37.580Z,7.00
2022-09-15T09:24:17.128Z,8.10
2022-09-15T09:26:46.042Z,5.30
2022-09-15T09:29:15.921Z,4.90
2022-09-15T09:31:43.846Z,4.57
2022-09-15T09:34:10.927Z,4.40
2022-09-15T09:36:38.040Z,4.65
2022-09-15T09:39:05.224Z,4.53
2022-09-15T09:41:36.817Z,3.90
2022-09-15T09:44:05.036Z,3.45
2022-09-15T09:46:32.198Z,3.45
2022-09-15T09:49:18.103Z,3.10
2022-09-15T09:51:55.135Z,3.03
2022-09-15T09:54:25.133Z,3.00
2022-09-15T09:56:53.604Z,2.85
2022-09-15T09:59:33.521Z,3.30
2022-09-15T10:02:15.863Z,2.30
2022-09-15T10:04:44.311Z,2.58
2022-09-15T10:07:12.030Z,2.53
2022-09-15T10:09:39.285Z,2.70
2022-09-15T10:12:07.391Z,2.08
2022-09-15T10:14:45.381Z,2.28
2022-09-15T10:17:12.487Z,2.42
2022-09-15T10:19:53.165Z,2.05
2022-09-15T10:22:23.281Z,1.90
2022-09-15T10:24:50.491Z,2.25
2022-09-15T10:27:31.125Z,3.08
2022-09-15T10:30:17.267Z,2.53
2022-09-15T10:32:44.579Z,3.45
2022-09-15T10:35:11.741Z,3.60
2022-09-15T10:37:50.909Z,4.13
2022-09-15T10:40:20.992Z,4.07
2022-09-15T10:42:50.591Z,3.40
2022-09-15T10:45:18.263Z,4.07
2022-09-15T10:47:45.364Z,4.38
2022-09-15T10:50:19.256Z,3.97
2022-09-15T10:52:53.017Z,4.45
2022-09-15T10:55:32.097Z,4.80
2022-09-15T10:58:26.079Z,5.65
2022-09-15T11:01:12.028Z,5.40
2022-09-15T11:03:39.709Z,6.88
2022-09-15T11:06:25.386Z,6.85
2022-09-15T11:08:55.525Z,5.82
2022-09-15T11:11:25.398Z,4.47
2022-09-15T11:13:52.441Z,5.28
2022-09-15T11:16:34.854Z,5.45
2022-09-15T11:19:05.083Z,5.18
2022-09-15T11:21:34.946Z,5.07
2022-09-15T11:24:31.154Z,5.97
2022-09-15T11:27:01.141Z,6.22
2022-09-15T11:29:28.217Z,6.25
2022-09-15T11:32:04.202Z,5.65
2022-09-15T11:34:31.289Z,6.93
2022-09-15T11:37:04.647Z,6.38
2022-09-15T11:39:36.059Z,5.60
2022-09-15T11:42:12.351Z,6.15
2022-09-15T11:44:42.043Z,4.60
2022-09-15T11:47:23.332Z,4.90
2022-09-15T11:49:55.236Z,4.40
2022-09-15T11:52:30.563Z,5.00
2022-09-15T11:55:08.206Z,4.30
2022-09-15T11:57:42.409Z,5.00
2022-09-15T12:00:14.528Z,4.70
2022-09-15T12:02:49.716Z,5.78
2022-09-15T12:05:35.842Z,5.20
2022-09-15T12:08:21.681Z,5.40
2022-09-15T12:10:54.327Z,4.53
2022-09-15T12:13:22.749Z,5.80
2022-09-15T12:15:50.891Z,6.95
2022-09-15T12:18:38.956Z,5.18
2022-09-15T12:21:34.086Z,6.80
2022-09-15T12:24:07.913Z,6.13
2022-09-15T12:26:35.204Z,6.97
2022-09-15T12:29:03.325Z,6.65
2022-09-15T12:31:31.790Z,6.80
2022-09-15T12:34:01.759Z,6.35
2022-09-15T12:36:34.759Z,6.88
2022-09-15T12:39:02.658Z,5.88
2022-09-15T12:41:30.535Z,6.90
2022-09-15T12:44:13.224Z,6.63
2022-09-15T12:49:14.337Z,7.80
2022-09-15T12:51:49.441Z,6.47
2022-09-15T12:54:23.080Z,6.93
2022-09-15T12:56:52.862Z,6.32
2022-09-15T12:59:25.170Z,6.70
2022-09-15T13:01:52.728Z,5.70
2022-09-15T13:04:49.033Z,6.22
2022-09-15T13:07:16.077Z,6.70
2022-09-15T13:09:44.246Z,7.18
2022-09-15T13:12:15.644Z,5.57
2022-09-15T13:14:48.158Z,5.85
2022-09-15T13:17:17.643Z,4.95
2022-09-15T13:19:46.803Z,5.22
2022-09-15T13:22:18.533Z,5.50
2022-09-15T13:24:45.583Z,4.78
2022-09-15T13:27:14.117Z,4.72
2022-09-15T13:29:44.553Z,5.18
2022-09-15T13:32:23.441Z,4.93
2022-09-15T13:35:05.710Z,5.10
2022-09-15T13:38:21.793Z,5.13
2022-09-15T13:41:03.627Z,4.80
2022-09-15T13:43:37.352Z,4.68
2022-09-15T13:46:19.572Z,4.90
2022-09-15T13:48:57.740Z,4.70
2022-09-15T13:51:27.495Z,4.03
2022-09-15T13:53:54.662Z,3.80
2022-09-15T13:56:29.984Z,3.60
2022-09-15T13:59:13.403Z,3.42
2022-09-15T14:01:42.428Z,3.60
2022-09-15T14:04:12.874Z,4.00
2022-09-15T14:06:42.043Z,3.88
2022-09-15T14:09:17.368Z,3.00
2022-09-15T14:11:46.663Z,3.35
2022-09-15T14:14:28.931Z,3.15
2022-09-15T14:16:57.163Z,3.95
2022-09-15T14:19:41.452Z,3.60
2022-09-15T14:22:27.751Z,3.50
2022-09-15T14:24:55.875Z,3.08
2022-09-15T14:27:24.756Z,3.67
2022-09-15T14:29:57.635Z,3.30
2022-09-15T14:32:26.069Z,4.13
2022-09-15T14:34:53.822Z,3.20
2022-09-15T14:37:21.005Z,3.50
2022-09-15T14:39:54.677Z,3.20
2022-09-15T14:42:34.517Z,3.55
2022-09-15T14:48:02.367Z,3.00
2022-09-15T14:50:32.899Z,3.45
2022-09-15T14:53:06.900Z,3.03
2022-09-15T14:55:41.506Z,3.65
2022-09-15T14:58:14.615Z,2.95
2022-09-15T15:00:45.341Z,3.13
2022-09-15T15:03:23.754Z,3.03
2022-09-15T15:06:02.603Z,3.13
2022-09-15T15:08:56.234Z,3.03
2022-09-15T15:11:23.366Z,2.30
2022-09-15T15:13:52.088Z,2.85
2022-09-15T15:16:26.684Z,2.80
2022-09-15T15:18:56.178Z,2.55
2022-09-15T15:21:29.172Z,2.80
2022-09-15T15:23:56.472Z,2.50
2022-09-15T15:26:25.553Z,3.10
2022-09-15T15:28:52.656Z,2.88
2022-09-15T15:31:21.572Z,2.67
2022-09-15T15:33:53.832Z,2.90
2022-09-15T15:36:22.247Z,3.00
2022-09-15T15:38:54.019Z,2.80
2022-09-15T15:41:25.467Z,2.87
2022-09-15T15:44:00.146Z,2.50
2022-09-15T15:46:45.711Z,2.38
2022-09-15T15:49:13.568Z,2.42
2022-09-15T15:51:41.097Z,2.55
2022-09-15T15:54:08.215Z,2.58
2022-09-15T15:56:37.998Z,2.70
2022-09-15T15:59:05.739Z,3.10
2022-09-15T16:01:33.556Z,2.50
2022-09-15T16:04:00.817Z,3.58
2022-09-15T16:06:28.045Z,2.45
2022-09-15T16:08:58.083Z,2.63
2022-09-15T16:11:25.218Z,3.70
2022-09-15T16:13:52.654Z,2.85
2022-09-15T16:16:20.014Z,3.30
2022-09-15T16:18:47.498Z,2.72
2022-09-15T16:21:37.695Z,2.92
2022-09-15T16:24:05.814Z,2.85
2022-09-15T16:26:35.590Z,2.65
2022-09-15T16:29:02.864Z,2.88
2022-09-15T16:31:30.008Z,2.85
2022-09-15T16:33:57.132Z,2.70
2022-09-15T16:36:24.245Z,2.63
2022-09-15T16:38:51.405Z,2.20
2022-09-15T16:41:19.893Z,2.75
2022-09-15T16:43:47.568Z,2.38
2022-09-15T16:46:14.931Z,2.92
2022-09-15T16:48:43.080Z,2.75
2022-09-15T16:51:30.895Z,2.50
2022-09-15T16:53:58.925Z,2.90
2022-09-15T16:56:26.942Z,2.70
2022-09-15T16:58:59.477Z,2.65
2022-09-15T17:01:27.461Z,2.53
2022-09-15T17:03:54.655Z,2.58
2022-09-15T17:06:22.134Z,2.63
2022-09-15T17:08:49.470Z,2.97
2022-09-15T17:11:17.983Z,3.35
2022-09-15T17:13:45.698Z,2.60
2022-09-15T17:16:17.220Z,2.65
2022-09-15T17:18:44.339Z,3.20
2022-09-15T17:21:16.225Z,2.70
2022-09-15T17:23:44.895Z,3.20
2022-09-15T17:26:27.579Z,3.25
2022-09-15T17:28:58.307Z,3.60
2022-09-15T17:31:25.890Z,3.38
2022-09-15T17:33:53.255Z,3.53
2022-09-15T17:36:20.489Z,3.55
2022-09-15T17:38:50.380Z,3.70
2022-09-15T17:41:19.062Z,4.57
2022-09-15T17:43:46.735Z,3.92
2022-09-15T17:46:13.956Z,4.60
2022-09-15T17:48:41.147Z,5.10
2022-09-15T17:51:10.179Z,5.07
2022-09-15T17:53:37.377Z,4.40
2022-09-15T17:56:04.479Z,4.43
2022-09-15T17:58:31.855Z,4.57
2022-09-15T18:00:59.313Z,4.97
2022-09-15T18:03:27.758Z,4.72
2022-09-15T18:05:56.063Z,4.82
2022-09-15T18:08:23.415Z,5.07
2022-09-15T18:10:50.881Z,4.05
2022-09-15T18:13:22.299Z,5.07
2022-09-15T18:15:49.904Z,5.38
2022-09-15T18:18:18.166Z,5.55
2022-09-15T18:20:45.350Z,6.00
2022-09-15T18:23:17.058Z,5.22
2022-09-15T18:25:44.812Z,5.65
2022-09-15T18:28:12.108Z,5.53
2022-09-15T18:30:40.762Z,6.10
2022-09-15T18:33:08.590Z,5.38
2022-09-15T18:35:36.513Z,5.90
2022-09-15T18:38:04.017Z,5.22
2022-09-15T18:40:31.138Z,5.75
2022-09-15T18:42:58.820Z,5.18
2022-09-15T18:45:26.024Z,6.00
2022-09-15T18:47:54.226Z,8.07
2022-09-15T18:50:22.464Z,7.32
2022-09-15T18:52:50.048Z,7.97
2022-09-15T18:55:18.683Z,7.78
2022-09-15T18:57:45.934Z,7.85
2022-09-15T19:00:14.742Z,7.97
2022-09-15T19:02:41.947Z,7.43
2022-09-15T19:05:11.435Z,7.45
2022-09-15T19:07:39.314Z,7.82
2022-09-15T19:10:07.295Z,8.85
2022-09-15T19:12:36.221Z,8.40
2022-09-15T19:15:04.227Z,7.70
2022-09-15T19:17:31.389Z,8.00
2022-09-15T19:20:00.180Z,7.85
2022-09-15T19:22:28.372Z,8.23
2022-09-15T19:24:55.671Z,7.20
2022-09-15T19:27:22.995Z,7.10
2022-09-15T19:29:51.387Z,7.45
2022-09-15T19:32:18.972Z,7.20
2022-09-15T19:34:47.156Z,7.18
2022-09-15T19:37:18.887Z,7.75
2022-09-15T19:39:46.655Z,7.13
2022-09-15T19:44:47.775Z,8.38
2022-09-15T19:47:14.932Z,7.60
2022-09-15T19:49:42.019Z,7.55
2022-09-15T19:52:09.220Z,7.55
2022-09-15T19:54:36.366Z,8.20
2022-09-15T19:57:03.881Z,8.68
2022-09-15T19:59:32.025Z,8.52
2022-09-15T20:01:59.912Z,8.73
2022-09-15T20:04:27.717Z,8.48
2022-09-15T20:06:54.867Z,8.18
2022-09-15T20:09:22.026Z,8.60
2022-09-15T20:11:49.237Z,7.47
2022-09-15T20:14:16.387Z,6.82
2022-09-15T20:16:46.318Z,6.25
2022-09-15T20:19:13.567Z,6.68
2022-09-15T20:21:56.323Z,7.35
2022-09-15T20:24:23.835Z,6.15
2022-09-15T20:26:51.589Z,5.40
2022-09-15T20:29:18.940Z,5.72
2022-09-15T20:31:46.220Z,6.45
2022-09-15T20:34:13.573Z,4.82
2022-09-15T20:36:41.091Z,4.97
2022-09-15T20:39:10.413Z,5.20
2022-09-15T20:41:37.714Z,4.65
2022-09-15T20:44:08.986Z,4.95
2022-09-15T20:46:36.579Z,5.10
2022-09-15T20:49:15.218Z,5.07
2022-09-15T20:51:42.342Z,5.10
2022-09-15T20:54:10.875Z,5.20
2022-09-15T20:56:38.208Z,4.95
2022-09-15T20:59:06.407Z,4.82
2022-09-15T21:01:35.837Z,5.32
2022-09-15T21:04:03.194Z,5.22
2022-09-15T21:06:30.458Z,5.97
2022-09-15T21:08:58.530Z,4.28
2022-09-15T21:11:29.543Z,5.20
2022-09-15T21:13:57.481Z,4.50
2022-09-15T21:16:26.196Z,4.45
2022-09-15T21:18:53.637Z,4.20
2022-09-15T21:21:25.047Z,4.55
2022-09-15T21:23:52.130Z,3.50
2022-09-15T21:26:20.579Z,4.05
2022-09-15T21:28:48.720Z,3.85
2022-09-15T21:31:17.544Z,4.68
2022-09-15T21:33:45.394Z,3.28
2022-09-15T21:36:14.607Z,3.85
2022-09-15T21:38:43.846Z,3.83
2022-09-15T21:41:13.680Z,3.80
2022-09-15T21:43:41.606Z,3.45
2022-09-15T21:46:11.375Z,3.38
2022-09-15T21:48:38.499Z,3.35
2022-09-15T21:51:06.355Z,3.38
2022-09-15T21:53:34.857Z,3.55
2022-09-15T21:56:03.185Z,3.28
2022-09-15T21:58:39.027Z,2.88
2022-09-15T22:01:11.386Z,3.50
2022-09-15T22:03:41.757Z,3.40
2022-09-15T22:06:10.000Z,3.25
2022-09-15T22:08:37.671Z,3.22
2022-09-15T22:11:05.538Z,2.92
2022-09-15T22:13:32.674Z,3.13
2022-09-15T22:16:03.637Z,3.10
2022-09-15T22:18:30.826Z,3.20
2022-09-15T22:21:11.356Z,3.17
2022-09-15T22:23:38.623Z,3.58
2022-09-15T22:26:16.195Z,3.65
2022-09-15T22:28:43.359Z,3.13
2022-09-15T22:31:11.859Z,3.10
2022-09-15T22:33:42.382Z,3.75
2022-09-15T22:36:17.741Z,3.67
2022-09-15T22:38:44.751Z,3.05
2022-09-15T22:41:13.825Z,2.97
2022-09-15T22:43:42.013Z,2.97
2022-09-15T22:46:09.457Z,3.22
2022-09-15T22:48:40.982Z,3.10
2022-09-15T22:51:10.643Z,2.80
2022-09-15T22:53:37.383Z,2.90
2022-09-15T22:56:20.615Z,2.72
2022-09-15T22:58:48.768Z,3.00
2022-09-15T23:01:24.378Z,2.92
2022-09-15T23:03:59.692Z,2.67
2022-09-15T23:06:29.304Z,2.22
2022-09-15T23:08:58.387Z,2.60
2022-09-15T23:11:26.349Z,3.05
2022-09-15T23:13:54.042Z,2.58
2022-09-15T23:16:22.296Z,2.80
2022-09-15T23:18:49.310Z,2.28
2022-09-15T23:21:16.009Z,2.45
2022-09-15T23:23:46.826Z,2.17
2022-09-15T23:26:14.435Z,2.08
2022-09-15T23:28:41.579Z,2.20
2022-09-15T23:31:10.632Z,2.30
2022-09-15T23:33:37.290Z,2.47
2022-09-15T23:36:06.018Z,2.20
2022-09-15T23:38:36.025Z,2.40
2022-09-15T23:41:02.704Z,2.28
2022-09-15T23:43:29.426Z,1.83
2022-09-15T23:45:56.058Z,2.33
2022-09-15T23:48:23.355Z,1.70
2022-09-15T23:50:50.024Z,2.35
2022-09-15T23:53:17.198Z,2.20
2022-09-15T23:55:44.169Z,2.42
2022-09-15T23:58:11.687Z,2.17
